Airfield :
LOGIN :

Register | Disclaimer

   EN    FR    IT 

 










Legend :    VFR   Marginal VFR   IFR   Intensive IFR   Very Intensive IFR
Visi :
Ceiling :
>= 8 km
>= 3000ft
5 to 8 km
1000 to 3000 ft
1500m to 5 km
500 to 1000 ft
800 to 1500m
200 to 500 ft
< 800m
< 200 ft
Symbols :   Thunderstorms  Fog  Heavy snow  Heavy precipitations  Wind > 20 kt
SIGMETs :     Misc.  Thunderstorms  Icing  Turbulence  Mountain Waves  Volcanic Ashes






- Airport Elevation : 788 ft
- IATA code : DCM


LFCK - Castres-Mazamet

EXPIRED METARs :
  • 011630Z AUTO 33008KT 300V010 CAVOK 24/08 Q1020 NOSIG
  • 012130Z AUTO VRB02KT CAVOK 15/10 Q1022
  • 012100Z AUTO VRB02KT CAVOK 16/11 Q1022 NOSIG
  • 012030Z AUTO 25005KT CAVOK 18/10 Q1021 NOSIG
  • 012000Z AUTO 27006KT CAVOK 20/10 Q1021 NOSIG
  • 010530Z AUTO 29005KT 9999 FEW010 BKN021 OVC026 14/12 Q1021
  • 011930Z AUTO 29007KT CAVOK 22/10 Q1020 NOSIG

TAF TAF LFCK
Valid from the 01 at 18:00 until the 02 at 03:00 UTC


011700Z 0118/0203 34008KT CAVOK
BECMG 0120/0122 VRB03KT



MET'MAP, your aeronautical weather chart ! - Copyright ORBIFLY December 2007 - Disclaimer

ORBIFLY MET'MAP TEAM :

Programming & Development : Alexandra Zaïnal
Original concept : Baudouin d'Aumeries
Technical & hardware support : Manuel Goepfert
Assistance : Marc-Olivier Méhu




SOURCES & CREDITS :

   NOAA